Americus, KS

5:59 PM CDT on July 24, 2014 (GMT -0500)
Timmerman School Area (KKSEMPOR4) Elev 1214 ft | 38.43 °N, 96.22 °W | Change Station
Active Advisory: Heat Advisory

Current weather conditions updated 4 seconds ago

Clear
Clear
86.0 °F
Feels Like 88 °F
N
4.3
Wind Variable Wind from SSE
Gusts 4.9 mph

Tomorrow is forecast to be Much Warmer than today. Partly cloudy, chance of a thunderstorm tomorrow night.

Today
High -- | Low -- °F
--% Chance of Precip.
Yesterday
High -- | Low -- °F
Precip. -- in
6:20 AM 8:42 PM
Waning Crescent, 4% visible
Pressure 29.96 in
Visibility 10.0 miles
Clouds Clear
Heat Index 88 °F
Dew Point 66 °F
Humidity 51%
Rainfall 0.00 in
Snow Depth Not available.
UV 3 out of 12
Pollen 5.70 out of 12
Air Quality Not available.
Flu Activity Not available.
METAR KEMP 242253Z AUTO 15014G19KT 10SM CLR 30/18 A2998 RMK AO2 SLP143 T03000178

More Conditions Fewer Conditions

Pressure 29.96 in
Visibility 10.0 miles
Clouds Clear
Heat Index 88 °F
Dew Point 66 °F
Humidity 51%
Rainfall 0.00 in
Snow Depth Not available.
UV 3 out of 12
Pollen 5.70 out of 12
Air Quality Not available.
Flu Activity Not available.
METAR KEMP 242253Z AUTO 15014G19KT 10SM CLR 30/18 A2998 RMK AO2 SLP143 T03000178

More Conditions Fewer Conditions

10-Day Weather Forecast

Almanac

Astronomy

Jul. 24, 2014 Rise Set
Actual Time 6:20 AM CDT 8:42 PM CDT
Civil Twilight 5:49 AM CDT 9:12 PM CDT
Nautical Twilight 5:12 AM CDT 9:49 PM CDT
Astronomical Twilight 4:31 AM CDT 10:30 PM CDT
Moon 4:28 AM CDT 6:58 PM CDT
Length of Visible Light 15h 22m
Length of Day
14h 22m
Tomorrow will be 1m 38s shorter.
Waning Crescent, 4% of the Moon is Illuminated
Today
Waning Crescent
Jul 26
New
Aug 3
First Quarter
Aug 10
Full
Aug 17
Last Quarter

Today's Extremes

State Highs State Lows

Community

WunderPhotos

Upload Photos

1,737,148 photos uploaded!

Nearby

Snow Depth

Station Depth Elevation
No new snow has been reported.

Earthquake Activity

City Distance Mag. Time & Date
Harper, Kansas 128 miles 3.3 7:24 AM CDT
2014-07-20
Harper, Kansas 127 miles 3.0 7:24 PM CDT
2014-07-19
Helena, Oklahoma 164 miles 3.2 8:41 AM CDT
2014-07-18
Minimum magnitude displayed is 2.5.

Coastal Water Temperatures

Place Temperature
No Stations Reporting

Nearby Weather Stations

Station Location Temp. Heat Index Dew Point Humidity Wind Precip. Elev Updated Type
Timmerman School Area, Emporia, KS 86.0 °F 88 °F 66 °F 51% SSE  at  4.3 mph 0.00 in / hr 1214 ft 5:59 PM CDT Rapid Fire
East Emporia Kansas, Emporia, KS 86.5 °F 90 °F 68 °F 54% SSE  at  6.8 mph - / hr 1106 ft 5:57 PM CDT Normal
RAWS TALLGRASS PRAIRIE KS, Strong City, KS 87 °F 89 °F 65 °F 49% SE  at  12 mph 0.00 in / hr 1230 ft 4:30 PM CDT MADIS
T-K Weather Station West Hartford, Kansa, Hartford, KS 89.4 °F 93 °F 68 °F 49% West  at  6.8 mph - / hr 1129 ft 5:58 PM CDT Normal

Show More Stations Show Fewer Stations